Airfield :
LOGIN :

Register | Disclaimer

   EN    FR    IT 

 










Legend :    VFR   Marginal VFR   IFR   Intensive IFR   Very Intensive IFR
Visi :
Ceiling :
>= 8 km
>= 3000ft
5 to 8 km
1000 to 3000 ft
1500m to 5 km
500 to 1000 ft
800 to 1500m
200 to 500 ft
< 800m
< 200 ft
Symbols :   Thunderstorms  Fog  Heavy snow  Heavy precipitations  Wind > 20 kt
SIGMETs :     Misc.  Thunderstorms  Icing  Turbulence  Mountain Waves  Volcanic Ashes






- Airport Elevation : 82 ft
- IATA code : ALG


DAAG - Alger Houari Boumedienne

CURRENT METAR :
  • 041230Z 36009KT 9999 FEW030 SCT200 32/23 Q1017

EXPIRED METARs :
  • 041200Z 34006KT 290V020 9999 FEW026 SCT200 33/23 Q1017
  • 041130Z 27005KT 220V320 9999 FEW026 SCT200 33/22 Q1017
  • 041100Z 24006KT 190V270 9999 FEW026 SCT200 32/22 Q1017
  • 041030Z 27010KT 240V310 9999 FEW026 SCT200 31/23 Q1018

TAF TAF DAAG
Valid from the 04 at 00:00 until the 05 at 00:00 UTC


032300Z 0400/0424 VRB02KT 9999 FEW026 BKN200
TEMPO 0400/0406 FEW030CB
BECMG 0409/0412 32010KT
BECMG 0418/0421 VRB02KT



MET'MAP, your aeronautical weather chart ! - Copyright ORBIFLY December 2007 - Disclaimer

ORBIFLY MET'MAP TEAM :

Programming & Development : Alexandra Zaïnal
Original concept : Baudouin d'Aumeries
Technical & hardware support : Manuel Goepfert
Assistance : Marc-Olivier Méhu




SOURCES & CREDITS :

   NOAA